createdAt,value
2022-11-20T00:01:29.643Z,9.18
2022-11-20T00:03:58.792Z,9.17
2022-11-20T00:06:27.192Z,9.17
2022-11-20T00:08:57.236Z,9.18
2022-11-20T00:11:25.687Z,9.18
2022-11-20T00:13:54.937Z,9.15
2022-11-20T00:16:24.297Z,9.15
2022-11-20T00:18:51.835Z,9.19
2022-11-20T00:21:24.606Z,9.17
2022-11-20T00:23:54.874Z,9.17
2022-11-20T00:26:23.641Z,9.16
2022-11-20T00:29:01.161Z,9.15
2022-11-20T00:31:28.925Z,9.18
2022-11-20T00:33:55.923Z,9.15
2022-11-20T00:36:25.104Z,9.17
2022-11-20T00:38:59.465Z,9.16
2022-11-20T00:41:28.016Z,9.14
2022-11-20T00:43:56.227Z,9.16
2022-11-20T00:46:25.525Z,9.15
2022-11-20T00:48:52.464Z,9.17
2022-11-20T00:51:22.225Z,9.20
2022-11-20T00:53:49.593Z,9.17
2022-11-20T00:56:18.685Z,9.14
2022-11-20T00:58:47.330Z,9.18
2022-11-20T01:01:17.257Z,9.16
2022-11-20T01:03:46.946Z,9.15
2022-11-20T01:06:17.207Z,9.15
2022-11-20T01:08:45.477Z,9.17
2022-11-20T01:11:36.621Z,9.18
2022-11-20T01:14:06.277Z,9.16
2022-11-20T01:16:39.151Z,9.17
2022-11-20T01:19:08.149Z,9.18
2022-11-20T01:21:38.105Z,9.18
2022-11-20T01:24:08.009Z,9.18
2022-11-20T01:26:36.764Z,9.15
2022-11-20T01:29:05.380Z,9.19
2022-11-20T01:31:35.100Z,9.18
2022-11-20T01:34:04.659Z,9.17
2022-11-20T01:36:34.263Z,9.17
2022-11-20T01:39:04.330Z,9.19
2022-11-20T01:41:51.293Z,9.17
2022-11-20T01:44:22.320Z,9.19
2022-11-20T01:47:05.033Z,9.16
2022-11-20T01:49:40.090Z,9.17
2022-11-20T01:52:25.100Z,9.18
2022-11-20T01:55:12.787Z,9.16
2022-11-20T01:57:41.164Z,9.19
2022-11-20T02:00:15.528Z,9.21
2022-11-20T02:02:48.879Z,9.20
2022-11-20T02:05:31.669Z,9.20
2022-11-20T02:08:00.365Z,9.21
2022-11-20T02:10:28.867Z,9.22
2022-11-20T02:13:14.110Z,9.19
2022-11-20T02:15:41.704Z,9.22
2022-11-20T02:18:10.358Z,9.20
2022-11-20T02:20:37.644Z,9.20
2022-11-20T02:23:14.279Z,9.18
2022-11-20T02:25:43.049Z,9.21
2022-11-20T02:28:10.633Z,9.22
2022-11-20T02:30:37.410Z,9.22
2022-11-20T02:33:04.176Z,9.21
2022-11-20T02:35:30.957Z,9.22
2022-11-20T02:38:02.056Z,9.21
2022-11-20T02:40:29.464Z,9.22
2022-11-20T02:42:57.460Z,9.20
2022-11-20T02:45:25.350Z,9.22
2022-11-20T02:47:52.644Z,9.20
2022-11-20T02:50:19.950Z,9.20
2022-11-20T02:52:47.200Z,9.22
2022-11-20T02:55:14.067Z,9.21
2022-11-20T02:57:40.862Z,9.19
2022-11-20T03:00:08.433Z,9.19
2022-11-20T03:02:35.767Z,9.23
2022-11-20T03:05:02.656Z,9.19
2022-11-20T03:07:29.474Z,9.19
2022-11-20T03:09:56.309Z,9.20
2022-11-20T03:12:23.072Z,9.19
2022-11-20T03:14:52.988Z,9.20
2022-11-20T03:17:20.013Z,9.19
2022-11-20T03:19:46.801Z,9.20
2022-11-20T03:22:13.631Z,9.21
2022-11-20T03:24:40.493Z,9.19
2022-11-20T03:27:07.344Z,9.20
2022-11-20T03:29:34.141Z,9.18
2022-11-20T03:32:00.950Z,9.18
2022-11-20T03:34:27.708Z,9.18
2022-11-20T03:36:54.528Z,9.16
2022-11-20T03:39:21.637Z,9.20
2022-11-20T03:41:48.680Z,9.20
2022-11-20T03:44:15.435Z,9.18
2022-11-20T03:46:42.349Z,9.19
2022-11-20T03:49:09.145Z,9.20
2022-11-20T03:51:36.977Z,9.21
2022-11-20T03:54:08.892Z,9.19
2022-11-20T03:56:38.514Z,9.19
2022-11-20T03:59:06.007Z,9.18
2022-11-20T04:01:35.821Z,9.19
2022-11-20T04:04:02.974Z,9.19
2022-11-20T04:06:34.161Z,9.20
2022-11-20T04:09:01.196Z,9.19
2022-11-20T04:11:30.821Z,9.16
2022-11-20T04:14:03.297Z,9.15
2022-11-20T04:16:32.000Z,9.15
2022-11-20T04:19:00.800Z,9.12
2022-11-20T04:21:28.553Z,9.15
2022-11-20T04:23:56.169Z,9.15
2022-11-20T04:26:25.085Z,9.15
2022-11-20T04:28:51.977Z,9.11
2022-11-20T04:31:23.903Z,9.14
2022-11-20T04:33:50.846Z,9.15
2022-11-20T04:36:22.644Z,9.11
2022-11-20T04:39:01.293Z,9.07
2022-11-20T04:41:34.824Z,9.05
2022-11-20T04:44:04.384Z,9.08
2022-11-20T04:46:39.836Z,9.06
2022-11-20T04:49:07.481Z,9.05
2022-11-20T04:51:34.621Z,9.04
2022-11-20T04:54:01.467Z,9.02
2022-11-20T04:56:28.390Z,9.03
2022-11-20T04:58:55.228Z,9.02
2022-11-20T05:01:24.338Z,9.01
2022-11-20T05:03:51.983Z,9.02
2022-11-20T05:06:20.733Z,9.01
2022-11-20T05:08:47.621Z,9.00
2022-11-20T05:11:17.137Z,8.97
2022-11-20T05:13:44.066Z,8.95
2022-11-20T05:16:16.582Z,8.98
2022-11-20T05:18:44.004Z,8.97
2022-11-20T05:21:12.304Z,8.95
2022-11-20T05:23:40.149Z,8.96
2022-11-20T05:26:08.566Z,8.94
2022-11-20T05:28:35.439Z,8.97
2022-11-20T05:31:10.572Z,8.96
2022-11-20T05:33:38.025Z,8.94
2022-11-20T05:36:05.566Z,8.92
2022-11-20T05:38:32.773Z,8.95
2022-11-20T05:41:10.724Z,8.92
2022-11-20T05:43:39.617Z,8.94
2022-11-20T05:46:07.940Z,8.92
2022-11-20T05:48:35.841Z,8.93
2022-11-20T05:51:04.775Z,8.92
2022-11-20T05:53:33.790Z,8.93
2022-11-20T05:56:12.493Z,8.93
2022-11-20T05:58:39.874Z,8.91
2022-11-20T06:01:09.600Z,8.90
2022-11-20T06:03:36.465Z,8.90
2022-11-20T06:06:04.969Z,8.90
2022-11-20T06:08:32.208Z,8.91
2022-11-20T06:10:59.025Z,8.91
2022-11-20T06:13:26.097Z,8.89
2022-11-20T06:15:53.748Z,8.86
2022-11-20T06:18:21.368Z,8.87
2022-11-20T06:20:48.135Z,8.92
2022-11-20T06:23:15.021Z,8.90
2022-11-20T06:25:43.880Z,8.91
2022-11-20T06:28:11.880Z,8.89
2022-11-20T06:30:38.637Z,8.90
2022-11-20T06:33:05.537Z,8.86
2022-11-20T06:35:32.289Z,8.86
2022-11-20T06:37:59.166Z,8.85
2022-11-20T06:40:25.909Z,8.87
2022-11-20T06:42:55.775Z,8.89
2022-11-20T06:45:22.860Z,8.88
2022-11-20T06:47:49.632Z,8.87
2022-11-20T06:50:16.561Z,8.87
2022-11-20T06:52:43.830Z,8.87
2022-11-20T06:55:10.786Z,8.86
2022-11-20T06:57:37.511Z,8.87
2022-11-20T07:00:04.688Z,8.87
2022-11-20T07:02:31.488Z,8.86
2022-11-20T07:04:58.335Z,8.87
2022-11-20T07:07:25.150Z,8.86
2022-11-20T07:09:52.080Z,8.85
2022-11-20T07:12:18.825Z,8.86
2022-11-20T07:14:45.969Z,8.80
2022-11-20T07:17:13.188Z,8.83
2022-11-20T07:19:40.003Z,8.85
2022-11-20T07:22:06.763Z,8.81
2022-11-20T07:24:33.641Z,8.83
2022-11-20T07:27:00.446Z,8.82
2022-11-20T07:29:27.324Z,8.79
2022-11-20T07:31:56.531Z,8.85
2022-11-20T07:34:23.893Z,8.80
2022-11-20T07:36:50.795Z,8.79
2022-11-20T07:39:17.585Z,8.80
2022-11-20T07:41:44.325Z,8.76
2022-11-20T07:44:11.239Z,8.77
2022-11-20T07:46:38.045Z,8.77
2022-11-20T07:49:04.836Z,8.76
2022-11-20T07:51:31.592Z,8.75
2022-11-20T07:53:58.693Z,8.74
2022-11-20T07:56:25.458Z,8.72
2022-11-20T07:58:52.365Z,8.73
2022-11-20T08:01:19.277Z,8.73
2022-11-20T08:03:46.233Z,8.72
2022-11-20T08:06:12.989Z,8.72
2022-11-20T08:08:43.078Z,8.76
2022-11-20T08:11:28.888Z,8.72
2022-11-20T08:14:13.742Z,8.73
2022-11-20T08:16:58.672Z,8.75
2022-11-20T08:19:25.491Z,8.72
2022-11-20T08:21:52.298Z,8.75
2022-11-20T08:24:19.103Z,8.73
2022-11-20T08:26:45.963Z,8.74
2022-11-20T08:29:12.937Z,8.70
2022-11-20T08:31:39.928Z,8.75
2022-11-20T08:34:09.505Z,8.72
2022-11-20T08:36:37.324Z,8.74
2022-11-20T08:39:04.503Z,8.74
2022-11-20T08:41:34.118Z,8.77
2022-11-20T08:44:06.080Z,8.74
2022-11-20T08:46:36.408Z,8.74
2022-11-20T08:49:04.069Z,8.75
2022-11-20T08:51:31.380Z,8.72
2022-11-20T08:53:58.288Z,8.75
2022-11-20T08:56:25.097Z,8.75
2022-11-20T08:59:18.370Z,8.76
2022-11-20T09:01:40.487Z,8.73
2022-11-20T09:04:07.371Z,8.75
2022-11-20T09:06:34.186Z,8.73
2022-11-20T09:09:06.360Z,8.75
2022-11-20T09:11:35.153Z,8.74
2022-11-20T09:14:03.706Z,8.72
2022-11-20T09:16:30.671Z,8.74
2022-11-20T09:19:28.206Z,8.73
2022-11-20T09:21:44.259Z,8.75
2022-11-20T09:24:11.084Z,8.73
2022-11-20T09:26:37.980Z,8.73
2022-11-20T09:29:04.917Z,8.71
2022-11-20T09:31:31.792Z,8.70
2022-11-20T09:33:58.661Z,8.68
2022-11-20T09:36:25.471Z,8.67
2022-11-20T09:38:52.205Z,8.68
2022-11-20T09:41:31.048Z,8.71
2022-11-20T09:44:13.000Z,8.67
2022-11-20T09:47:01.942Z,8.65
2022-11-20T09:50:03.149Z,8.67
2022-11-20T09:52:32.837Z,8.70
2022-11-20T09:55:03.016Z,8.71
2022-11-20T09:57:39.243Z,8.72
2022-11-20T10:00:14.629Z,8.70
2022-11-20T10:02:41.429Z,8.72
2022-11-20T10:05:20.542Z,8.72
2022-11-20T10:07:56.480Z,8.77
2022-11-20T10:10:43.640Z,8.72
2022-11-20T10:13:39.501Z,8.76
2022-11-20T10:16:18.726Z,8.77
2022-11-20T10:18:54.141Z,8.76
2022-11-20T10:21:30.285Z,8.75
2022-11-20T10:24:15.776Z,8.75
2022-11-20T10:26:48.417Z,8.72
2022-11-20T10:29:21.719Z,8.74
2022-11-20T10:32:03.377Z,8.72
2022-11-20T10:34:34.049Z,8.72
2022-11-20T10:37:07.811Z,8.71
2022-11-20T10:39:50.741Z,8.72
2022-11-20T10:42:36.267Z,8.74
2022-11-20T10:45:28.181Z,8.74
2022-11-20T10:48:26.401Z,8.74
2022-11-20T10:51:21.124Z,8.72
2022-11-20T10:54:18.123Z,8.74
2022-11-20T10:56:51.344Z,8.72
2022-11-20T10:59:27.151Z,8.74
2022-11-20T11:01:54.006Z,8.76
2022-11-20T11:04:30.084Z,8.77
2022-11-20T11:07:25.100Z,8.75
2022-11-20T11:09:55.010Z,8.75
2022-11-20T11:12:24.988Z,8.77
2022-11-20T11:14:57.222Z,8.75
2022-11-20T11:17:27.926Z,8.74
2022-11-20T11:20:19.724Z,8.79
2022-11-20T11:22:58.206Z,8.79
2022-11-20T11:25:31.466Z,8.75
2022-11-20T11:28:02.901Z,8.78
2022-11-20T11:30:41.427Z,8.78
2022-11-20T11:33:12.369Z,8.78
2022-11-20T11:35:53.414Z,8.79
2022-11-20T11:38:39.489Z,8.81
2022-11-20T11:41:08.576Z,8.82
2022-11-20T11:43:56.722Z,8.82
2022-11-20T11:46:37.711Z,8.83
2022-11-20T11:49:10.499Z,8.82
2022-11-20T11:51:46.216Z,8.85
2022-11-20T11:54:29.557Z,8.87
2022-11-20T11:56:59.598Z,8.85
2022-11-20T11:59:52.967Z,8.83
2022-11-20T12:02:30.812Z,8.85
2022-11-20T12:05:18.154Z,8.85
2022-11-20T12:07:50.880Z,8.86
2022-11-20T12:10:24.941Z,8.87
2022-11-20T12:13:01.828Z,8.87
2022-11-20T12:15:35.332Z,8.87
2022-11-20T12:18:02.312Z,8.88
2022-11-20T12:20:41.011Z,8.87
2022-11-20T12:23:35.930Z,8.87
2022-11-20T12:26:15.105Z,8.87
2022-11-20T12:29:07.466Z,8.87
2022-11-20T12:31:55.904Z,8.90
2022-11-20T12:34:44.344Z,8.90
2022-11-20T12:37:13.815Z,8.89
2022-11-20T12:39:47.499Z,8.91
2022-11-20T12:42:45.044Z,8.91
2022-11-20T12:45:20.737Z,8.95
2022-11-20T12:48:13.198Z,8.95
2022-11-20T12:51:15.526Z,8.95
2022-11-20T12:53:49.092Z,8.96
2022-11-20T12:56:18.871Z,8.98
2022-11-20T12:59:04.725Z,8.97
2022-11-20T13:02:10.340Z,8.97
2022-11-20T13:04:37.151Z,8.95
2022-11-20T13:07:08.495Z,8.96
2022-11-20T13:09:38.903Z,8.94
2022-11-20T13:12:32.734Z,8.93
2022-11-20T13:15:29.687Z,8.91
2022-11-20T13:18:01.878Z,8.92
2022-11-20T13:20:30.364Z,8.90
2022-11-20T13:23:00.834Z,8.89
2022-11-20T13:25:33.309Z,8.88
2022-11-20T13:28:06.452Z,8.88
2022-11-20T13:30:34.797Z,8.87
2022-11-20T13:33:10.581Z,8.86
2022-11-20T13:35:42.444Z,8.85
2022-11-20T13:38:10.608Z,8.85
2022-11-20T13:40:40.508Z,8.83
2022-11-20T13:43:28.009Z,8.85
2022-11-20T13:46:06.442Z,8.83
2022-11-20T13:48:39.208Z,8.83
2022-11-20T13:51:09.197Z,8.85
2022-11-20T13:54:10.894Z,8.86
2022-11-20T13:57:09.729Z,8.86
2022-11-20T14:00:14.132Z,8.86
2022-11-20T14:02:42.116Z,8.85
2022-11-20T14:05:21.558Z,8.83
2022-11-20T14:07:50.112Z,8.83
2022-11-20T14:10:21.244Z,8.82
2022-11-20T14:12:48.851Z,8.83
2022-11-20T14:15:39.255Z,8.83
2022-11-20T14:18:34.926Z,8.82
2022-11-20T14:21:03.561Z,8.81
2022-11-20T14:23:30.771Z,8.67
2022-11-20T14:25:58.123Z,8.32
2022-11-20T14:28:30.415Z,8.15
2022-11-20T14:30:58.403Z,8.44
2022-11-20T14:33:27.552Z,8.60
2022-11-20T14:35:59.316Z,8.67
2022-11-20T14:38:32.373Z,8.70
2022-11-20T14:41:28.751Z,8.71
2022-11-20T14:43:58.492Z,8.71
2022-11-20T14:46:25.631Z,8.71
2022-11-20T14:48:56.961Z,8.70
2022-11-20T14:51:39.236Z,8.73
2022-11-20T14:54:24.485Z,8.70
2022-11-20T14:56:56.217Z,8.71
2022-11-20T14:59:31.372Z,8.73
2022-11-20T15:02:02.301Z,8.72
2022-11-20T15:04:29.195Z,8.70
2022-11-20T15:06:58.041Z,8.71
2022-11-20T15:09:25.455Z,8.68
2022-11-20T15:12:03.267Z,8.70
2022-11-20T15:14:33.525Z,8.68
2022-11-20T15:17:00.565Z,8.68
2022-11-20T15:19:28.050Z,8.68
2022-11-20T15:21:54.971Z,8.68
2022-11-20T15:24:22.301Z,8.68
2022-11-20T15:26:49.395Z,8.65
2022-11-20T15:29:21.846Z,8.66
2022-11-20T15:31:48.810Z,8.63
2022-11-20T15:34:16.640Z,8.66
2022-11-20T15:36:44.703Z,8.64
2022-11-20T15:39:12.546Z,8.63
2022-11-20T15:41:39.912Z,8.63
2022-11-20T15:44:07.350Z,8.62
2022-11-20T15:46:39.525Z,8.62
2022-11-20T15:49:07.270Z,8.62
2022-11-20T15:51:39.600Z,8.61
2022-11-20T15:54:22.503Z,8.59
2022-11-20T15:56:53.441Z,8.60
2022-11-20T15:59:20.390Z,8.59
2022-11-20T16:01:47.461Z,8.57
2022-11-20T16:04:16.700Z,8.56
2022-11-20T16:06:45.131Z,8.57
2022-11-20T16:09:11.994Z,8.57
2022-11-20T16:11:39.006Z,8.56
2022-11-20T16:14:25.652Z,8.55
2022-11-20T16:16:53.071Z,8.55
2022-11-20T16:19:19.908Z,8.50
2022-11-20T16:21:46.887Z,8.49
2022-11-20T16:24:15.408Z,8.49
2022-11-20T16:26:42.839Z,8.49
2022-11-20T16:29:11.080Z,8.49
2022-11-20T16:31:38.291Z,8.58
2022-11-20T16:34:11.860Z,8.64
2022-11-20T16:36:50.683Z,8.73
2022-11-20T16:39:23.089Z,8.68
2022-11-20T16:41:50.625Z,8.64
2022-11-20T16:44:17.364Z,8.56
2022-11-20T16:46:44.285Z,8.52
2022-11-20T16:49:14.834Z,8.48
2022-11-20T16:51:42.810Z,8.46
2022-11-20T16:54:10.591Z,8.46
2022-11-20T16:56:37.670Z,8.44
2022-11-20T16:59:04.797Z,8.43
2022-11-20T17:01:32.447Z,8.44
2022-11-20T17:04:04.991Z,8.41
2022-11-20T17:06:34.268Z,8.41
2022-11-20T17:09:01.549Z,8.04
2022-11-20T17:11:28.811Z,8.23
2022-11-20T17:14:03.644Z,8.29
2022-11-20T17:16:31.471Z,8.31
2022-11-20T17:19:02.857Z,8.30
2022-11-20T17:21:35.936Z,8.29
2022-11-20T17:24:08.385Z,8.30
2022-11-20T17:26:37.304Z,8.29
2022-11-20T17:29:12.711Z,8.27
2022-11-20T17:31:40.224Z,8.26
2022-11-20T17:34:11.014Z,8.26
2022-11-20T17:36:44.866Z,8.27
2022-11-20T17:39:14.168Z,8.26
2022-11-20T17:41:41.281Z,8.27
2022-11-20T17:44:10.695Z,8.29
2022-11-20T17:46:37.633Z,8.28
2022-11-20T17:49:05.796Z,8.23
2022-11-20T17:51:35.184Z,8.22
2022-11-20T17:54:04.385Z,8.23
2022-11-20T17:56:51.354Z,8.23
2022-11-20T17:59:18.929Z,8.20
2022-11-20T18:01:46.062Z,8.18
2022-11-20T18:04:13.860Z,8.20
2022-11-20T18:06:40.981Z,8.19
2022-11-20T18:09:07.987Z,8.18
2022-11-20T18:11:37.402Z,8.16
2022-11-20T18:14:24.982Z,8.15
2022-11-20T18:16:54.969Z,8.13
2022-11-20T18:19:31.486Z,8.13
2022-11-20T18:22:01.464Z,8.13
2022-11-20T18:24:28.958Z,8.11
2022-11-20T18:26:55.945Z,8.11
2022-11-20T18:29:22.869Z,8.09
2022-11-20T18:31:50.170Z,8.09
2022-11-20T18:34:17.456Z,8.11
2022-11-20T18:36:45.408Z,8.08
2022-11-20T18:39:14.137Z,8.07
2022-11-20T18:42:04.716Z,8.06
2022-11-20T18:44:51.488Z,8.05
2022-11-20T18:47:24.668Z,8.04
2022-11-20T18:49:53.672Z,8.05
2022-11-20T18:52:25.900Z,8.05
2022-11-20T18:54:52.972Z,8.06
2022-11-20T18:57:25.231Z,8.06
2022-11-20T18:59:54.162Z,8.05
2022-11-20T19:02:22.173Z,8.01
2022-11-20T19:04:49.604Z,8.01
2022-11-20T19:07:16.656Z,8.02
2022-11-20T19:09:45.418Z,8.01
2022-11-20T19:12:13.191Z,7.99
2022-11-20T19:14:40.467Z,8.01
2022-11-20T19:17:08.134Z,8.01
2022-11-20T19:19:35.540Z,8.01
2022-11-20T19:22:02.692Z,7.96
2022-11-20T19:24:29.647Z,7.94
2022-11-20T19:26:57.185Z,7.93
2022-11-20T19:29:25.532Z,7.94
2022-11-20T19:31:52.756Z,7.93
2022-11-20T19:34:19.609Z,7.88
2022-11-20T19:36:46.634Z,7.90
2022-11-20T19:39:13.517Z,7.86
2022-11-20T19:41:41.490Z,7.82
2022-11-20T19:44:11.224Z,7.77
2022-11-20T19:46:39.448Z,7.76
2022-11-20T19:49:10.146Z,7.82
2022-11-20T19:51:38.683Z,7.85
2022-11-20T19:54:06.454Z,7.84
2022-11-20T19:56:34.434Z,7.89
2022-11-20T19:59:01.847Z,7.85
2022-11-20T20:01:30.955Z,7.81
2022-11-20T20:04:02.623Z,7.84
2022-11-20T20:06:30.183Z,7.84
2022-11-20T20:09:01.268Z,7.81
2022-11-20T20:11:30.526Z,7.77
2022-11-20T20:13:59.099Z,7.76
2022-11-20T20:16:27.880Z,7.78
2022-11-20T20:18:57.296Z,7.74
2022-11-20T20:21:24.209Z,7.75
2022-11-20T20:23:55.444Z,7.76
2022-11-20T20:26:24.730Z,7.76
2022-11-20T20:28:51.749Z,7.74
2022-11-20T20:31:21.613Z,7.72
2022-11-20T20:33:49.164Z,7.71
2022-11-20T20:36:17.820Z,7.69
2022-11-20T20:38:46.316Z,7.68
2022-11-20T20:41:14.305Z,7.69
2022-11-20T20:43:59.680Z,7.70
2022-11-20T20:46:26.744Z,7.63
2022-11-20T20:48:54.968Z,7.62
2022-11-20T20:51:22.762Z,7.62
2022-11-20T20:53:50.730Z,7.57
2022-11-20T20:56:18.074Z,7.55
2022-11-20T20:58:44.971Z,7.57
2022-11-20T21:01:14.496Z,7.58
2022-11-20T21:03:42.151Z,7.56
2022-11-20T21:06:10.863Z,7.57
2022-11-20T21:08:40.623Z,7.62
2022-11-20T21:11:10.035Z,7.59
2022-11-20T21:13:38.211Z,7.48
2022-11-20T21:16:05.311Z,7.53
2022-11-20T21:18:32.913Z,7.50
2022-11-20T21:21:18.917Z,7.45
2022-11-20T21:23:47.699Z,7.31
2022-11-20T21:26:16.236Z,7.40
2022-11-20T21:28:43.644Z,7.42
2022-11-20T21:31:16.592Z,7.42
2022-11-20T21:33:47.929Z,7.37
2022-11-20T21:36:26.553Z,7.32
2022-11-20T21:38:55.339Z,7.33
2022-11-20T21:41:23.268Z,7.34
2022-11-20T21:46:43.478Z,7.33
2022-11-20T21:49:10.899Z,7.35
2022-11-20T21:51:38.016Z,7.33
2022-11-20T21:54:04.993Z,7.30
2022-11-20T21:56:32.127Z,7.25
2022-11-20T21:58:59.414Z,7.29
2022-11-20T22:01:30.523Z,7.28
2022-11-20T22:03:59.555Z,7.28
2022-11-20T22:06:33.304Z,7.24
2022-11-20T22:09:01.117Z,7.26
2022-11-20T22:11:28.160Z,7.24
2022-11-20T22:14:13.901Z,7.23
2022-11-20T22:16:40.726Z,7.17
2022-11-20T22:19:07.802Z,7.16
2022-11-20T22:21:35.384Z,7.20
2022-11-20T22:24:02.649Z,7.17
2022-11-20T22:26:34.988Z,7.14
2022-11-20T22:29:05.548Z,7.10
2022-11-20T22:31:32.751Z,7.03
2022-11-20T22:34:02.022Z,6.98
2022-11-20T22:36:30.584Z,6.96
2022-11-20T22:38:58.174Z,6.98
2022-11-20T22:41:30.135Z,7.02
2022-11-20T22:43:59.541Z,7.02
2022-11-20T22:46:27.962Z,7.02
2022-11-20T22:49:03.458Z,7.02
2022-11-20T22:51:35.343Z,7.01
2022-11-20T22:54:03.640Z,7.02
2022-11-20T22:56:31.083Z,7.01
2022-11-20T22:58:58.253Z,7.00
2022-11-20T23:01:30.083Z,6.98
2022-11-20T23:04:02.072Z,6.91
2022-11-20T23:06:29.616Z,6.86
2022-11-20T23:08:56.999Z,6.80
2022-11-20T23:11:27.168Z,6.80
2022-11-20T23:13:58.536Z,6.87
2022-11-20T23:16:27.897Z,6.88
2022-11-20T23:18:56.735Z,6.87
2022-11-20T23:21:24.165Z,6.84
2022-11-20T23:23:53.326Z,6.85
2022-11-20T23:26:23.017Z,6.81
2022-11-20T23:28:50.108Z,6.82
2022-11-20T23:31:17.108Z,6.86
2022-11-20T23:33:45.887Z,6.83
2022-11-20T23:36:13.435Z,6.79
2022-11-20T23:38:40.513Z,6.82
2022-11-20T23:41:07.334Z,6.83
2022-11-20T23:43:34.847Z,6.76
2022-11-20T23:46:03.148Z,6.73
2022-11-20T23:48:32.992Z,6.74
2022-11-20T23:51:00.714Z,6.79
2022-11-20T23:53:28.006Z,6.75
2022-11-20T23:55:56.991Z,6.78
2022-11-20T23:58:25.582Z,6.78
